Time;durP1;ratioP1;P1;durP2;ratioP2;P2;SDS_P1;SDS_P2;PMS_P1;PMS_P2;Temp;Humidity;BMP_temperature;BMP_pressure;BME280_temperature;BME280_humidity;BME280_pressure;Samples;Min_cycle;Max_cycle;Signal;HPM_P1;HPM_P2
2022/11/18 00:02:10;;;;;;;1.13;0.32;;;;;;;7.59;100.00;98480.69;5042086;28;20029;-62
2022/11/18 00:04:36;;;;;;;0.35;0.00;;;;;;;7.56;100.00;98473.22;5042525;28;20094;-59
2022/11/18 00:07:01;;;;;;;3.30;0.65;;;;;;;7.58;100.00;98471.19;5038583;28;20045;-57
2022/11/18 00:09:27;;;;;;;4.85;0.80;;;;;;;7.57;100.00;98465.09;5039794;28;20036;-61
2022/11/18 00:14:36;;;;;;;0.77;0.25;;;;;;;7.54;100.00;98481.38;5031622;28;20036;-57
2022/11/18 00:17:03;;;;;;;1.48;0.10;;;;;;;7.52;100.00;98487.91;5038624;28;20017;-61
2022/11/18 00:19:34;;;;;;;4.70;0.50;;;;;;;7.51;100.00;98497.66;5045986;28;20033;-58
2022/11/18 00:22:00;;;;;;;1.45;0.25;;;;;;;7.46;100.00;98492.22;5032729;28;20017;-62
2022/11/18 00:24:26;;;;;;;0.43;0.10;;;;;;;7.43;100.00;98498.75;5039017;28;20115;-62
2022/11/18 00:26:52;;;;;;;3.65;0.30;;;;;;;7.41;100.00;98507.88;5039037;28;20116;-60
2022/11/18 00:29:17;;;;;;;1.85;0.47;;;;;;;7.47;100.00;98500.94;5024703;28;20080;-59
2022/11/18 00:31:43;;;;;;;5.93;0.32;;;;;;;7.49;100.00;98507.59;5033732;28;20342;-61
2022/11/18 00:34:14;;;;;;;2.80;0.73;;;;;;;7.43;100.00;98513.72;5034049;28;20091;-59
2022/11/18 00:36:40;;;;;;;6.32;0.55;;;;;;;7.43;100.00;98509.28;5039963;28;20048;-58
2022/11/18 00:39:06;;;;;;;1.63;0.60;;;;;;;7.43;100.00;98522.47;5046535;28;20041;-61
2022/11/18 00:44:16;;;;;;;2.20;0.00;;;;;;;7.36;100.00;98531.47;5036643;28;20624;-58
2022/11/18 00:46:41;;;;;;;1.38;0.25;;;;;;;7.41;100.00;98536.91;5042601;28;20124;-61
2022/11/18 00:49:07;;;;;;;1.00;0.17;;;;;;;7.47;100.00;98537.84;5044762;28;20064;-61
2022/11/18 00:51:33;;;;;;;3.63;0.95;;;;;;;7.51;100.00;98534.56;5042361;28;20120;-61
2022/11/18 00:53:58;;;;;;;1.85;0.85;;;;;;;7.56;100.00;98531.25;5041682;28;20047;-60
2022/11/18 00:56:23;;;;;;;3.03;0.15;;;;;;;7.47;100.00;98533.38;5040706;28;20192;-61
2022/11/18 00:58:49;;;;;;;2.72;0.95;;;;;;;7.40;100.00;98541.34;5045855;28;20025;-56
2022/11/18 01:01:14;;;;;;;1.35;0.20;;;;;;;7.42;100.00;98546.41;5046391;28;20044;-62
2022/11/18 01:03:40;;;;;;;3.53;0.10;;;;;;;7.36;100.00;98540.19;5019532;28;20040;-61
2022/11/18 01:06:05;;;;;;;3.60;1.15;;;;;;;7.39;100.00;98541.56;5045694;28;20055;-60
2022/11/18 01:08:30;;;;;;;4.00;0.15;;;;;;;7.33;100.00;98543.25;5035598;28;20048;-62
2022/11/18 01:13:17;;;;;;;1.77;0.00;;;;;;;7.34;100.00;98547.50;5041896;28;20522;-56
2022/11/18 01:13:41;;;;;;;2.22;0.13;;;;;;;7.34;100.00;98571.22;5036383;28;20051;-59
2022/11/18 01:16:06;;;;;;;1.52;0.15;;;;;;;7.46;100.00;98552.03;5029413;28;20471;-62
2022/11/18 01:18:32;;;;;;;2.08;0.25;;;;;;;7.39;100.00;98557.41;5041436;28;20083;-62
2022/11/18 01:21:02;;;;;;;1.88;0.17;;;;;;;7.38;100.00;98561.88;5025277;28;20033;-61
2022/11/18 01:23:28;;;;;;;2.55;0.10;;;;;;;7.33;100.00;98566.97;5042179;28;20033;-61
2022/11/18 01:25:53;;;;;;;0.95;0.10;;;;;;;7.24;100.00;98572.72;5040115;28;20025;-61
2022/11/18 01:28:19;;;;;;;0.98;0.25;;;;;;;7.28;100.00;98585.28;5047490;28;20025;-60
2022/11/18 01:30:45;;;;;;;0.45;0.10;;;;;;;7.33;100.00;98569.63;5037465;28;20376;-62
2022/11/18 01:33:11;;;;;;;4.88;0.38;;;;;;;7.26;100.00;98584.69;5039107;28;20470;-60
2022/11/18 01:35:38;;;;;;;1.33;0.10;;;;;;;7.23;100.00;98579.84;5032413;28;20086;-62
2022/11/18 01:38:05;;;;;;;2.97;0.20;;;;;;;7.26;100.00;98573.34;5022549;28;20049;-60
2022/11/18 01:40:31;;;;;;;4.57;0.80;;;;;;;7.26;100.00;98576.78;5043609;28;20112;-62
2022/11/18 01:42:57;;;;;;;6.13;1.10;;;;;;;7.19;100.00;98574.19;5036832;28;20486;-65
2022/11/18 01:45:38;;;;;;;1.58;0.03;;;;;;;7.18;100.00;98579.69;5041300;28;20065;-61
2022/11/18 01:48:27;;;;;;;2.42;0.17;;;;;;;7.16;100.00;98581.72;5039371;28;20116;-59
2022/11/18 01:50:57;;;;;;;1.48;0.00;;;;;;;7.15;100.00;98590.63;5039248;28;20115;-61
2022/11/18 01:53:29;;;;;;;3.30;0.30;;;;;;;7.20;100.00;98598.69;5036928;28;20435;-60
2022/11/18 01:55:59;;;;;;;4.90;0.22;;;;;;;7.22;100.00;98591.38;5040889;28;20155;-59
2022/11/18 01:58:49;;;;;;;1.98;0.17;;;;;;;7.10;100.00;98601.00;5032457;28;20032;-62
2022/11/18 02:01:14;;;;;;;5.53;0.57;;;;;;;7.03;100.00;98608.97;5046142;28;20506;-62
2022/11/18 02:03:41;;;;;;;5.85;0.20;;;;;;;7.21;100.00;98609.03;5053225;28;20021;-61
2022/11/18 02:06:08;;;;;;;4.10;0.35;;;;;;;7.20;100.00;98607.44;5042870;28;20080;-63
2022/11/18 02:08:36;;;;;;;2.10;0.13;;;;;;;7.05;100.00;98624.56;5045441;28;20063;-61
2022/11/18 02:11:03;;;;;;;3.65;0.20;;;;;;;7.03;100.00;98624.00;5035935;28;20029;-62
2022/11/18 02:13:31;;;;;;;0.73;0.20;;;;;;;7.07;100.00;98625.97;5051460;28;20036;-62
2022/11/18 02:16:08;;;;;;;2.08;0.30;;;;;;;7.07;100.00;98625.97;5046088;28;20041;-63
2022/11/18 02:18:56;;;;;;;1.27;0.47;;;;;;;7.09;100.00;98626.56;5051031;28;20550;-61
2022/11/18 02:21:45;;;;;;;2.95;0.20;;;;;;;7.11;100.00;98634.25;5051702;28;20057;-57
2022/11/18 02:24:27;;;;;;;1.70;0.28;;;;;;;7.07;100.00;98625.97;5045650;28;20017;-60
2022/11/18 02:27:27;;;;;;;3.75;0.65;;;;;;;6.97;100.00;98626.44;5047217;28;20478;-60
2022/11/18 02:30:07;;;;;;;1.60;0.40;;;;;;;6.93;100.00;98637.63;5042333;28;20396;-60
2022/11/18 02:33:01;;;;;;;4.95;0.40;;;;;;;6.93;100.00;98640.25;5038417;28;20034;-56
2022/11/18 02:35:39;;;;;;;1.27;0.10;;;;;;;6.90;100.00;98649.38;5048739;28;20504;-59
2022/11/18 02:38:10;;;;;;;5.18;0.35;;;;;;;6.85;100.00;98661.59;5052543;28;20033;-60
2022/11/18 02:40:41;;;;;;;1.20;0.10;;;;;;;6.92;100.00;98657.09;5061564;28;20024;-60
2022/11/18 02:43:13;;;;;;;0.00;0.00;;;;;;;6.92;100.00;98657.09;5038656;28;20037;-61
2022/11/18 02:45:43;;;;;;;3.00;0.80;;;;;;;7.04;100.00;98659.84;5028559;28;20033;-59
2022/11/18 02:48:11;;;;;;;8.10;0.63;;;;;;;7.00;100.00;98664.75;5030369;28;20041;-60
2022/11/18 02:50:40;;;;;;;0.20;0.00;;;;;;;6.88;100.00;98661.97;5049323;28;20374;-61
2022/11/18 02:53:08;;;;;;;3.35;0.10;;;;;;;6.87;100.00;98675.38;5043746;28;20422;-56
2022/11/18 02:55:36;;;;;;;3.75;0.40;;;;;;;7.01;100.00;98674.25;5037997;28;20052;-60
2022/11/18 02:58:04;;;;;;;0.65;0.08;;;;;;;7.14;100.00;98670.72;5045095;28;20367;-60
2022/11/18 03:00:30;;;;;;;0.17;0.10;;;;;;;7.16;100.00;98664.22;5040019;28;20056;-58
2022/11/18 03:02:56;;;;;;;2.25;0.10;;;;;;;7.13;100.00;98674.41;5048057;28;20040;-56
2022/11/18 03:05:45;;;;;;;3.50;0.90;;;;;;;7.01;100.00;98676.88;5039178;28;20035;-60
2022/11/18 03:08:21;;;;;;;0.40;0.00;;;;;;;6.94;100.00;98684.84;5033536;28;20026;-58
2022/11/18 03:11:10;;;;;;;2.15;0.05;;;;;;;6.92;100.00;98692.16;5042395;28;20029;-60
2022/11/18 03:13:42;;;;;;;0.43;0.05;;;;;;;6.81;100.00;98699.91;5047944;28;20033;-62
2022/11/18 03:16:25;;;;;;;6.30;0.60;;;;;;;6.75;100.00;98694.44;5045025;28;20064;-61
2022/11/18 03:19:28;;;;;;;2.08;0.80;;;;;;;6.77;100.00;98704.78;5043826;28;20025;-59
2022/11/18 03:22:12;;;;;;;2.72;0.45;;;;;;;6.80;100.00;98703.56;5022774;28;20041;-60
2022/11/18 03:24:51;;;;;;;10.65;0.73;;;;;;;6.83;100.00;98696.03;5041742;28;20036;-62
2022/11/18 03:27:35;;;;;;;6.93;0.45;;;;;;;6.83;100.00;98701.31;5048366;28;20033;-62
2022/11/18 03:30:07;;;;;;;0.43;0.08;;;;;;;6.76;100.00;98703.16;5051480;28;20775;-59
2022/11/18 03:32:37;;;;;;;1.02;0.20;;;;;;;6.70;100.00;98707.44;5037917;28;20449;-61
2022/11/18 03:35:09;;;;;;;0.38;0.32;;;;;;;6.74;100.00;98711.28;5043578;28;20364;-57
2022/11/18 03:37:37;;;;;;;1.23;0.10;;;;;;;6.81;100.00;98719.13;5051566;28;20033;-61
2022/11/18 03:40:14;;;;;;;2.95;1.15;;;;;;;6.78;100.00;98725.63;5053713;28;20025;-61
2022/11/18 03:42:53;;;;;;;3.85;1.13;;;;;;;6.73;100.00;98727.28;5046236;28;20432;-58
2022/11/18 03:45:22;;;;;;;0.30;0.10;;;;;;;6.63;100.00;98732.97;5051336;28;20060;-58
2022/11/18 03:47:54;;;;;;;1.08;0.65;;;;;;;6.59;100.00;98737.06;5047827;28;20040;-61
2022/11/18 03:50:28;;;;;;;4.38;0.28;;;;;;;6.66;100.00;98740.50;5048068;28;20039;-59
2022/11/18 03:52:55;;;;;;;4.00;0.15;;;;;;;6.72;100.00;98747.56;5038502;28;20115;-62
2022/11/18 03:55:29;;;;;;;0.35;0.00;;;;;;;6.80;100.00;98753.59;5027785;28;20066;-61
2022/11/18 03:58:03;;;;;;;2.75;0.47;;;;;;;6.75;100.00;98747.13;5036145;28;20112;-59
2022/11/18 04:00:35;;;;;;;1.75;0.77;;;;;;;6.75;100.00;98757.66;5046455;28;20449;-60
2022/11/18 04:03:01;;;;;;;2.78;0.00;;;;;;;6.83;100.00;98754.00;5046770;28;20029;-60
2022/11/18 04:05:31;;;;;;;3.75;0.38;;;;;;;6.89;100.00;98757.59;5050708;28;20052;-60
2022/11/18 04:08:02;;;;;;;3.45;0.43;;;;;;;6.95;100.00;98747.06;5049078;28;20433;-61
2022/11/18 04:10:37;;;;;;;0.47;0.13;;;;;;;6.93;100.00;98757.00;5053297;28;20485;-61
2022/11/18 04:13:12;;;;;;;2.90;0.73;;;;;;;6.97;100.00;98760.84;5049485;28;20444;-61
2022/11/18 04:15:40;;;;;;;1.58;0.00;;;;;;;7.03;100.00;98759.19;5048091;28;20397;-61
2022/11/18 04:18:06;;;;;;;2.22;0.20;;;;;;;7.06;100.00;98760.59;5051877;28;20024;-60
2022/11/18 04:20:32;;;;;;;0.13;0.08;;;;;;;7.03;100.00;98768.91;5056893;28;20044;-58
2022/11/18 04:22:58;;;;;;;2.13;0.08;;;;;;;7.07;100.00;98764.84;5030795;28;20462;-61
2022/11/18 04:25:24;;;;;;;3.75;1.17;;;;;;;7.09;100.00;98768.88;5054444;28;20033;-62
2022/11/18 04:27:50;;;;;;;3.92;0.52;;;;;;;7.16;100.00;98772.28;5053816;28;20033;-61
2022/11/18 04:30:16;;;;;;;0.30;0.03;;;;;;;7.24;100.00;98775.72;5044299;28;20126;-59
2022/11/18 04:32:41;;;;;;;0.43;0.08;;;;;;;7.26;100.00;98778.94;5037144;28;20038;-56
2022/11/18 04:35:07;;;;;;;7.80;0.80;;;;;;;7.28;100.00;98772.44;5045088;28;20079;-60
2022/11/18 04:37:33;;;;;;;1.63;0.10;;;;;;;7.26;100.00;98786.84;5045317;28;20029;-57
2022/11/18 04:39:58;;;;;;;3.60;1.55;;;;;;;7.25;100.00;98785.22;5045165;28;20033;-58
2022/11/18 04:42:24;;;;;;;0.57;0.00;;;;;;;7.24;100.00;98779.16;5052542;28;20029;-61
2022/11/18 04:44:49;;;;;;;1.35;0.38;;;;;;;7.13;100.00;98783.25;5035089;28;20025;-60
2022/11/18 04:47:14;;;;;;;1.92;0.10;;;;;;;7.14;100.00;98797.25;5048501;28;20072;-60
2022/11/18 04:49:40;;;;;;;1.00;0.10;;;;;;;7.20;100.00;98794.59;5043399;28;20547;-61
2022/11/18 04:52:05;;;;;;;1.83;0.30;;;;;;;7.24;100.00;98791.53;5025172;28;20616;-62
2022/11/18 04:54:31;;;;;;;1.85;0.57;;;;;;;7.19;100.00;98806.13;5055694;28;20032;-61
2022/11/18 04:56:56;;;;;;;1.48;0.00;;;;;;;7.20;100.00;98812.22;5046459;28;20066;-61
2022/11/18 04:59:25;;;;;;;2.78;0.00;;;;;;;7.22;100.00;98816.25;5046740;28;20024;-62
2022/11/18 05:01:51;;;;;;;0.85;0.25;;;;;;;7.27;100.00;98823.53;5041120;28;20036;-60
2022/11/18 05:04:20;;;;;;;2.65;0.00;;;;;;;7.27;100.00;98812.19;5047100;28;20098;-60
2022/11/18 05:06:46;;;;;;;1.42;0.47;;;;;;;7.26;100.00;98821.94;5042795;28;20044;-60
2022/11/18 05:09:12;;;;;;;0.28;0.28;;;;;;;7.20;100.00;98828.03;5046245;28;20060;-57
2022/11/18 05:14:28;;;;;;;0.65;0.03;;;;;;;7.15;100.00;98833.94;5052755;28;20036;-61
2022/11/18 05:16:55;;;;;;;1.02;0.00;;;;;;;7.22;100.00;98847.88;5045082;28;20079;-64
2022/11/18 05:19:20;;;;;;;3.90;0.28;;;;;;;7.18;100.00;98841.44;5049014;28;20061;-61
2022/11/18 05:21:45;;;;;;;1.52;0.63;;;;;;;7.13;100.00;98843.88;5049517;28;20053;-60
2022/11/18 05:24:11;;;;;;;2.53;0.10;;;;;;;7.10;100.00;98844.31;5057413;28;20051;-58
2022/11/18 05:26:36;;;;;;;6.68;1.08;;;;;;;7.03;100.00;98859.31;5038344;28;20449;-60
2022/11/18 05:29:02;;;;;;;3.03;0.20;;;;;;;6.97;100.00;98860.97;5039169;28;20127;-62
2022/11/18 05:31:28;;;;;;;0.47;0.35;;;;;;;6.96;100.00;98874.34;5019784;28;20037;-62
2022/11/18 05:33:53;;;;;;;3.95;1.02;;;;;;;6.99;100.00;98873.91;5039960;28;20051;-60
2022/11/18 05:36:20;;;;;;;1.23;0.10;;;;;;;7.00;100.00;98875.56;5043184;28;20127;-62
2022/11/18 05:38:45;;;;;;;6.07;0.30;;;;;;;6.83;100.00;98885.72;5038428;28;20037;-61
2022/11/18 05:43:09;;;;;;;2.63;0.40;;;;;;;6.70;100.00;98886.53;5038425;28;20035;-61
2022/11/18 05:43:57;;;;;;;0.85;0.10;;;;;;;6.63;100.00;98898.09;5038915;28;20645;-61
2022/11/18 05:46:23;;;;;;;1.35;0.10;;;;;;;6.52;100.00;98894.25;5043816;28;20437;-62
2022/11/18 05:48:49;;;;;;;1.88;0.20;;;;;;;6.43;100.00;98900.72;5023829;28;20021;-63
2022/11/18 05:51:15;;;;;;;1.05;0.70;;;;;;;6.26;100.00;98906.41;5035934;28;20033;-62
2022/11/18 05:53:40;;;;;;;1.38;0.30;;;;;;;6.19;100.00;98910.03;5040424;28;20025;-62
2022/11/18 05:56:17;;;;;;;0.45;0.20;;;;;;;6.19;100.00;98913.47;5045467;28;20056;-61
2022/11/18 05:58:43;;;;;;;1.65;0.52;;;;;;;6.21;100.00;98919.34;5043787;28;20029;-58
2022/11/18 06:01:10;;;;;;;1.33;0.00;;;;;;;6.31;100.00;98921.59;5034157;28;20033;-59
2022/11/18 06:03:39;;;;;;;6.72;1.08;;;;;;;6.36;100.00;98932.34;5033566;28;20428;-58
2022/11/18 06:06:06;;;;;;;1.30;0.43;;;;;;;6.19;100.00;98926.63;5043353;28;20509;-62
2022/11/18 06:08:36;;;;;;;0.20;0.00;;;;;;;6.01;100.00;98936.91;5025289;28;20030;-60
2022/11/18 06:11:02;;;;;;;1.10;0.00;;;;;;;5.98;100.00;98943.41;5040369;28;20029;-60
2022/11/18 06:13:33;;;;;;;3.92;0.50;;;;;;;5.96;100.00;98947.22;5039509;28;20107;-62
2022/11/18 06:15:59;;;;;;;1.73;0.22;;;;;;;6.05;100.00;98957.38;5041317;28;20047;-61
2022/11/18 06:18:27;;;;;;;2.40;0.00;;;;;;;6.05;100.00;98956.56;5050795;28;20025;-61
2022/11/18 06:20:58;;;;;;;1.08;0.55;;;;;;;6.10;100.00;98960.22;5044692;28;20355;-56
2022/11/18 06:23:27;;;;;;;0.10;0.00;;;;;;;6.09;100.00;98966.50;5041804;28;20024;-61
2022/11/18 06:25:52;;;;;;;2.90;0.20;;;;;;;5.97;100.00;98975.19;5052113;28;20122;-58
2022/11/18 06:28:19;;;;;;;1.55;0.00;;;;;;;6.00;100.00;98985.31;5052773;28;20033;-58
2022/11/18 06:30:44;;;;;;;0.45;0.45;;;;;;;6.10;100.00;98985.75;5047489;28;20057;-62
2022/11/18 06:33:10;;;;;;;1.00;0.10;;;;;;;6.06;100.00;98997.66;5024685;28;20064;-58
2022/11/18 06:35:35;;;;;;;2.08;0.15;;;;;;;5.98;100.00;98997.84;5048082;28;20057;-62
2022/11/18 06:38:00;;;;;;;1.35;0.00;;;;;;;5.88;100.00;99001.59;5030688;28;20112;-60
2022/11/18 06:40:26;;;;;;;1.45;0.10;;;;;;;5.81;100.00;99019.19;5046665;28;20032;-61
2022/11/18 06:45:35;;;;;;;0.75;0.03;;;;;;;6.02;100.00;99020.94;5046463;28;20099;-62
2022/11/18 06:48:01;;;;;;;2.55;1.08;;;;;;;6.03;100.00;99038.34;5048681;28;20028;-61
2022/11/18 06:50:27;;;;;;;0.35;0.20;;;;;;;6.16;100.00;99034.94;5042924;28;20103;-59
2022/11/18 06:52:52;;;;;;;2.50;0.40;;;;;;;6.23;100.00;99042.88;5041162;28;20082;-61
2022/11/18 06:55:18;;;;;;;0.55;0.20;;;;;;;6.17;100.00;99039.22;5054261;28;20025;-61
2022/11/18 06:57:43;;;;;;;0.77;0.22;;;;;;;6.17;100.00;99049.75;5026908;28;20335;-62
2022/11/18 07:00:09;;;;;;;0.45;0.00;;;;;;;6.15;100.00;99051.75;5038560;28;20371;-61
2022/11/18 07:02:35;;;;;;;0.73;0.65;;;;;;;6.05;100.00;99061.81;5041711;28;20051;-60
2022/11/18 07:05:01;;;;;;;2.67;0.43;;;;;;;6.06;100.00;99064.25;5041316;28;20024;-62
2022/11/18 07:07:26;;;;;;;1.48;0.20;;;;;;;6.08;100.00;99064.06;5040774;28;20041;-61
2022/11/18 07:09:51;;;;;;;3.60;0.10;;;;;;;6.09;100.00;99068.31;5024059;28;20127;-61
2022/11/18 07:12:17;;;;;;;0.80;0.20;;;;;;;6.09;100.00;99073.56;5043155;28;20028;-58
2022/11/18 07:14:42;;;;;;;1.08;0.73;;;;;;;6.13;100.00;99080.06;5042864;28;20033;-61
2022/11/18 07:17:08;;;;;;;1.40;0.10;;;;;;;6.11;100.00;99090.78;5046005;28;20025;-62
2022/11/18 07:19:33;;;;;;;0.35;0.10;;;;;;;5.97;100.00;99098.84;5028874;28;20032;-62
2022/11/18 07:21:59;;;;;;;1.10;0.10;;;;;;;5.86;100.00;99110.66;5036704;28;20041;-60
2022/11/18 07:24:27;;;;;;;1.10;0.00;;;;;;;5.84;100.00;99102.19;5039294;28;20107;-61
2022/11/18 07:26:53;;;;;;;0.30;0.30;;;;;;;6.03;100.00;99113.84;5045080;28;20068;-62
2022/11/18 07:29:18;;;;;;;2.75;0.10;;;;;;;6.16;100.00;99129.69;5043956;28;20094;-61
2022/11/18 07:31:44;;;;;;;0.88;0.13;;;;;;;6.27;100.00;99129.16;5038597;28;20029;-62
2022/11/18 07:34:11;;;;;;;0.00;0.00;;;;;;;6.30;100.00;99138.47;5039435;28;20056;-60
2022/11/18 07:36:36;;;;;;;0.35;0.15;;;;;;;6.29;100.00;99142.09;5044041;28;20108;-61
2022/11/18 07:39:04;;;;;;;3.17;0.80;;;;;;;6.25;100.00;99152.22;5027575;28;20101;-60
2022/11/18 07:41:30;;;;;;;2.38;0.90;;;;;;;6.24;100.00;99147.13;5041452;28;20112;-61
2022/11/18 07:43:57;;;;;;;1.10;0.17;;;;;;;6.16;100.00;99148.09;5020228;28;20401;-62
2022/11/18 07:46:34;;;;;;;1.15;0.45;;;;;;;6.10;100.00;99164.69;5036044;28;20029;-60
2022/11/18 07:49:02;;;;;;;3.08;0.28;;;;;;;6.04;100.00;99162.81;5046192;28;20029;-62
2022/11/18 07:51:30;;;;;;;0.50;0.17;;;;;;;6.27;100.00;99180.97;5039570;28;20033;-61
2022/11/18 07:53:56;;;;;;;3.58;0.85;;;;;;;6.38;100.00;99171.72;5044853;28;20081;-61
2022/11/18 07:56:21;;;;;;;0.90;0.15;;;;;;;6.29;100.00;99189.47;5045317;28;20033;-61
2022/11/18 07:58:52;;;;;;;0.85;0.03;;;;;;;6.20;100.00;99195.94;5040381;28;20061;-62
2022/11/18 08:01:21;;;;;;;1.73;0.10;;;;;;;6.07;100.00;99189.56;5045302;28;20025;-62
2022/11/18 08:03:47;;;;;;;0.05;0.00;;;;;;;5.92;100.00;99195.91;5046046;28;20060;-62
2022/11/18 08:06:15;;;;;;;2.35;0.17;;;;;;;5.86;100.00;99200.09;5033195;28;20516;-59
2022/11/18 08:08:40;;;;;;;1.00;0.45;;;;;;;5.88;100.00;99209.44;5047179;28;20112;-62
2022/11/18 08:11:08;;;;;;;1.17;0.35;;;;;;;5.77;100.00;99209.97;5044326;28;20449;-61
2022/11/18 08:13:34;;;;;;;2.92;0.30;;;;;;;5.66;100.00;99226.28;5042958;28;20037;-60
2022/11/18 08:16:00;;;;;;;1.00;0.40;;;;;;;5.58;100.00;99223.78;5048734;28;20112;-62
2022/11/18 08:18:28;;;;;;;0.65;0.47;;;;;;;5.94;100.00;99234.22;5055547;28;20100;-62
2022/11/18 08:20:54;;;;;;;2.90;0.17;;;;;;;6.02;100.00;99234.06;5030959;28;20110;-61
2022/11/18 08:23:19;;;;;;;2.50;0.20;;;;;;;6.04;100.00;99239.97;5048357;28;20037;-62
2022/11/18 08:25:45;;;;;;;6.32;0.43;;;;;;;6.10;100.00;99239.19;5051265;28;20052;-61
2022/11/18 08:28:12;;;;;;;3.75;1.67;;;;;;;6.21;100.00;99244.91;5054077;28;20074;-62
2022/11/18 08:30:38;;;;;;;2.00;0.30;;;;;;;6.32;100.00;99247.84;5048024;28;20041;-59
2022/11/18 08:33:04;;;;;;;4.95;1.40;;;;;;;6.50;100.00;99244.66;5043972;28;20017;-61
2022/11/18 08:35:30;;;;;;;2.40;0.90;;;;;;;6.68;100.00;99248.63;5043625;28;20112;-62
2022/11/18 08:37:56;;;;;;;0.40;0.10;;;;;;;6.70;100.00;99252.69;5051122;28;20044;-62
2022/11/18 08:40:22;;;;;;;3.60;0.35;;;;;;;6.81;100.00;99242.59;5047265;28;20025;-61
2022/11/18 08:42:47;;;;;;;3.47;0.38;;;;;;;6.94;100.00;99245.28;5039265;28;20026;-62
2022/11/18 08:45:13;;;;;;;1.38;0.20;;;;;;;6.99;100.00;99248.13;5045289;28;20104;-62
2022/11/18 08:47:38;;;;;;;2.72;0.40;;;;;;;6.98;100.00;99249.97;5037469;28;20499;-62
2022/11/18 08:50:06;;;;;;;0.40;0.08;;;;;;;6.98;100.00;99249.16;5044274;28;20089;-62
2022/11/18 08:52:31;;;;;;;2.10;0.00;;;;;;;7.11;100.00;99249.19;5035458;28;20091;-58
2022/11/18 08:54:56;;;;;;;0.68;0.20;;;;;;;7.18;100.00;99244.75;5037485;28;20108;-62
2022/11/18 08:57:22;;;;;;;1.20;0.15;;;;;;;7.28;100.00;99254.09;5047814;28;20048;-62
2022/11/18 08:59:47;;;;;;;5.95;0.28;;;;;;;7.38;100.00;99251.88;5029522;28;20428;-61
2022/11/18 09:02:17;;;;;;;3.33;0.10;;;;;;;7.49;100.00;99242.59;5018759;28;20115;-63
2022/11/18 09:04:43;;;;;;;0.38;0.00;;;;;;;7.48;100.00;99244.38;5035132;28;20043;-62
2022/11/18 09:07:08;;;;;;;2.28;0.25;;;;;;;7.52;100.00;99248.25;5033263;28;20053;-62
2022/11/18 09:09:34;;;;;;;0.60;0.38;;;;;;;7.63;100.00;99252.94;5038077;28;20127;-60
2022/11/18 09:11:59;;;;;;;1.77;0.20;;;;;;;7.72;100.00;99250.09;5035930;28;20037;-62
2022/11/18 09:14:24;;;;;;;1.70;0.00;;;;;;;7.76;100.00;99253.97;5027069;28;20056;-62
2022/11/18 09:16:50;;;;;;;1.67;0.25;;;;;;;7.78;100.00;99251.94;5035960;28;20560;-61
2022/11/18 09:19:16;;;;;;;2.40;0.77;;;;;;;7.82;100.00;99258.41;5037797;28;20998;-62
2022/11/18 09:21:41;;;;;;;0.90;0.85;;;;;;;7.86;100.00;99255.19;5035685;28;20505;-61
2022/11/18 09:24:07;;;;;;;1.80;0.17;;;;;;;7.97;100.00;99252.94;5037363;28;20029;-60
2022/11/18 09:26:33;;;;;;;0.57;0.00;;;;;;;8.06;100.00;99249.09;5034432;28;20036;-61
2022/11/18 09:28:59;;;;;;;4.00;0.90;;;;;;;8.05;100.00;99248.28;5028617;28;20408;-62
2022/11/18 09:31:24;;;;;;;2.33;0.93;;;;;;;8.09;100.00;99259.25;5034812;28;20036;-61
2022/11/18 09:33:49;;;;;;;0.40;0.13;;;;;;;8.15;100.00;99249.69;5036874;28;20119;-60
2022/11/18 09:36:20;;;;;;;0.88;0.63;;;;;;;8.26;100.00;99260.44;5032102;28;20394;-59
2022/11/18 09:38:46;;;;;;;0.20;0.00;;;;;;;8.33;100.00;99259.59;5035658;28;20042;-63
2022/11/18 09:41:42;;;;;;;2.10;0.30;;;;;;;8.43;100.00;99266.13;5037871;28;20045;-61
2022/11/18 09:44:34;;;;;;;2.97;0.30;;;;;;;8.49;100.00;99269.75;5037284;28;20021;-62
2022/11/18 09:47:24;;;;;;;1.65;0.15;;;;;;;8.57;100.00;99274.84;5036259;28;20037;-61
2022/11/18 09:49:51;;;;;;;0.75;0.75;;;;;;;8.61;100.00;99280.50;5036807;28;20039;-62
2022/11/18 09:52:28;;;;;;;1.02;0.10;;;;;;;8.65;100.00;99274.63;5035036;28;20040;-58
2022/11/18 09:54:54;;;;;;;2.88;0.70;;;;;;;8.68;100.00;99299.81;5035913;28;20060;-61
2022/11/18 09:57:36;;;;;;;0.47;0.03;;;;;;;8.75;100.00;99284.72;5026547;28;21160;-61
2022/11/18 10:00:12;;;;;;;4.35;0.15;;;;;;;8.82;100.00;99290.00;5030435;28;20525;-61
2022/11/18 10:02:59;;;;;;;2.47;1.20;;;;;;;8.86;100.00;99297.31;5031134;28;20044;-61
2022/11/18 10:05:49;;;;;;;0.85;0.08;;;;;;;8.92;100.00;99288.53;5041060;28;20044;-62
2022/11/18 10:08:35;;;;;;;0.80;0.60;;;;;;;8.98;100.00;99300.09;5035381;28;20048;-57
2022/11/18 10:11:16;;;;;;;3.08;0.57;;;;;;;9.03;100.00;99302.13;5030995;28;20719;-60
2022/11/18 10:14:06;;;;;;;3.43;0.93;;;;;;;9.08;100.00;99300.47;5035773;28;20039;-61
2022/11/18 10:16:34;;;;;;;0.35;0.10;;;;;;;9.10;100.00;99305.56;5039950;28;20033;-60
2022/11/18 10:19:08;;;;;;;0.52;0.00;;;;;;;9.20;100.00;99308.56;5033558;28;20024;-62
2022/11/18 10:21:44;;;;;;;0.20;0.00;;;;;;;9.24;100.00;99315.06;5036377;28;20045;-60
2022/11/18 10:24:17;;;;;;;2.08;1.00;;;;;;;9.30;100.00;99314.22;5036981;28;20143;-62
2022/11/18 10:26:42;;;;;;;0.73;0.10;;;;;;;9.36;100.00;99308.06;5028029;28;20045;-62
2022/11/18 10:29:11;;;;;;;4.22;1.00;;;;;;;9.45;100.00;99313.94;5029113;28;20032;-61
2022/11/18 10:31:39;;;;;;;9.40;1.45;;;;;;;9.52;100.00;99321.84;5025426;28;20080;-61
2022/11/18 10:34:09;;;;;;;5.43;0.20;;;;;;;9.54;100.00;99330.38;5034292;28;20525;-62
2022/11/18 10:36:36;;;;;;;2.38;1.23;;;;;;;9.58;100.00;99336.88;5043222;28;20045;-60
2022/11/18 10:39:15;;;;;;;1.55;0.32;;;;;;;9.59;100.00;99328.72;5030565;28;20021;-61
2022/11/18 10:41:45;;;;;;;3.92;0.10;;;;;;;9.64;100.00;99333.38;5038336;28;20120;-61
2022/11/18 10:44:42;;;;;;;0.10;0.00;;;;;;;9.76;100.00;99336.97;5032420;28;20124;-63
2022/11/18 10:47:13;;;;;;;6.32;0.10;;;;;;;9.79;100.00;99333.09;5011276;28;20090;-62
2022/11/18 10:49:39;;;;;;;0.45;0.00;;;;;;;9.79;100.00;99344.47;5038241;28;20079;-60
2022/11/18 10:52:13;;;;;;;2.75;0.10;;;;;;;9.83;100.00;99343.03;5037928;28;20139;-62
2022/11/18 10:54:39;;;;;;;1.27;0.00;;;;;;;9.87;100.00;99340.78;5039877;28;20610;-63
2022/11/18 10:57:20;;;;;;;0.63;0.00;;;;;;;9.93;100.00;99347.84;5034907;28;20654;-61
2022/11/18 10:59:54;;;;;;;0.05;0.00;;;;;;;10.04;100.00;99341.88;5035969;28;20058;-62
2022/11/18 11:02:30;;;;;;;1.65;0.60;;;;;;;10.10;100.00;99348.16;5037843;28;20025;-61
2022/11/18 11:04:57;;;;;;;0.68;0.00;;;;;;;10.19;100.00;99343.38;5039461;28;20455;-62
2022/11/18 11:07:33;;;;;;;1.65;0.00;;;;;;;10.26;100.00;99338.84;5038086;28;20053;-63
2022/11/18 11:10:11;;;;;;;0.28;0.00;;;;;;;10.35;100.00;99342.06;5032107;28;20054;-61
2022/11/18 11:13:11;;;;;;;1.00;0.20;;;;;;;10.44;100.00;99354.81;5042354;28;20478;-60
2022/11/18 11:15:44;;;;;;;1.90;1.13;;;;;;;10.43;100.00;99347.09;5031273;28;20686;-57
2022/11/18 11:18:41;;;;;;;2.20;0.00;;;;;;;10.41;100.00;99343.84;5041401;28;20139;-64
2022/11/18 11:21:13;;;;;;;0.00;0.00;;;;;;;10.50;100.00;99355.78;5035080;28;20075;-63
2022/11/18 11:23:39;;;;;;;0.28;0.00;;;;;;;10.46;100.00;99344.00;5029354;28;20079;-64
2022/11/18 11:26:20;;;;;;;1.80;0.10;;;;;;;10.58;100.00;99352.03;5034384;28;20147;-62
2022/11/18 11:28:55;;;;;;;1.90;0.00;;;;;;;10.66;100.00;99352.59;5035784;28;20513;-62
2022/11/18 11:31:25;;;;;;;0.47;0.00;;;;;;;10.68;100.00;99357.66;5032194;28;20033;-60
2022/11/18 11:34:10;;;;;;;1.10;0.10;;;;;;;10.76;100.00;99359.22;5036836;28;20036;-64
2022/11/18 11:36:59;;;;;;;0.70;0.00;;;;;;;10.74;100.00;99363.91;5034103;28;20104;-62
2022/11/18 11:39:45;;;;;;;3.00;0.30;;;;;;;10.66;100.00;99365.84;5036221;28;20036;-61
2022/11/18 11:42:38;;;;;;;2.05;0.43;;;;;;;10.74;100.00;99356.81;5042259;28;20037;-61
2022/11/18 11:45:03;;;;;;;0.57;0.10;;;;;;;10.78;100.00;99367.75;5030117;28;20120;-59
2022/11/18 11:47:48;;;;;;;1.17;0.10;;;;;;;10.78;100.00;99363.25;5023217;28;20037;-58
2022/11/18 11:50:52;;;;;;;2.85;1.20;;;;;;;10.70;100.00;99371.50;5033967;28;20036;-61
2022/11/18 11:53:36;;;;;;;5.50;0.80;;;;;;;10.77;100.00;99369.63;5036185;28;20202;-61
2022/11/18 11:56:22;;;;;;;0.85;0.30;;;;;;;10.80;100.00;99377.13;5033616;28;20041;-59
2022/11/18 11:59:25;;;;;;;0.00;0.00;;;;;;;10.76;100.00;99369.81;5042558;28;20033;-62